sensor_id;sensor_type;location;lat;lon;timestamp;P1;durP1;ratioP1;P2;durP2;ratioP2
59167;SDS011;70412;55.048;73.268;2024-01-15T00:01:21;18.67;;;6.45;;
59167;SDS011;70412;55.048;73.268;2024-01-15T00:04:26;20.45;;;4.80;;
59167;SDS011;70412;55.048;73.268;2024-01-15T00:07:29;16.33;;;4.38;;
59167;SDS011;70412;55.048;73.268;2024-01-15T00:10:32;14.88;;;3.97;;
59167;SDS011;70412;55.048;73.268;2024-01-15T00:13:34;15.80;;;4.68;;
59167;SDS011;70412;55.048;73.268;2024-01-15T00:16:36;13.65;;;4.15;;
59167;SDS011;70412;55.048;73.268;2024-01-15T00:19:39;9.20;;;3.67;;
59167;SDS011;70412;55.048;73.268;2024-01-15T00:22:41;9.48;;;4.03;;
59167;SDS011;70412;55.048;73.268;2024-01-15T00:25:44;4.63;;;2.10;;
59167;SDS011;70412;55.048;73.268;2024-01-15T00:28:46;11.65;;;4.50;;
59167;SDS011;70412;55.048;73.268;2024-01-15T00:31:48;7.10;;;2.65;;
59167;SDS011;70412;55.048;73.268;2024-01-15T00:34:51;7.55;;;3.25;;
59167;SDS011;70412;55.048;73.268;2024-01-15T00:37:53;6.20;;;3.08;;
59167;SDS011;70412;55.048;73.268;2024-01-15T00:40:56;9.70;;;3.90;;
59167;SDS011;70412;55.048;73.268;2024-01-15T00:43:58;5.40;;;1.67;;
59167;SDS011;70412;55.048;73.268;2024-01-15T00:47:02;8.40;;;2.47;;
59167;SDS011;70412;55.048;73.268;2024-01-15T00:50:04;7.15;;;3.42;;
59167;SDS011;70412;55.048;73.268;2024-01-15T00:53:07;16.17;;;5.40;;
59167;SDS011;70412;55.048;73.268;2024-01-15T00:56:10;7.55;;;2.60;;
59167;SDS011;70412;55.048;73.268;2024-01-15T00:59:15;10.30;;;3.10;;
59167;SDS011;70412;55.048;73.268;2024-01-15T01:02:18;35.22;;;11.20;;
59167;SDS011;70412;55.048;73.268;2024-01-15T01:05:29;52.00;;;13.45;;
59167;SDS011;70412;55.048;73.268;2024-01-15T01:08:31;12.98;;;5.97;;
59167;SDS011;70412;55.048;73.268;2024-01-15T01:11:34;19.23;;;6.28;;
59167;SDS011;70412;55.048;73.268;2024-01-15T01:14:36;27.63;;;9.02;;
59167;SDS011;70412;55.048;73.268;2024-01-15T01:17:39;16.65;;;4.43;;
59167;SDS011;70412;55.048;73.268;2024-01-15T01:20:41;19.42;;;7.00;;
59167;SDS011;70412;55.048;73.268;2024-01-15T01:23:44;10.85;;;3.03;;
59167;SDS011;70412;55.048;73.268;2024-01-15T01:26:46;10.38;;;3.88;;
59167;SDS011;70412;55.048;73.268;2024-01-15T01:29:49;11.00;;;3.08;;
59167;SDS011;70412;55.048;73.268;2024-01-15T01:32:51;10.73;;;2.72;;
59167;SDS011;70412;55.048;73.268;2024-01-15T01:35:54;10.98;;;3.88;;
59167;SDS011;70412;55.048;73.268;2024-01-15T01:38:56;9.30;;;2.13;;
59167;SDS011;70412;55.048;73.268;2024-01-15T01:41:59;14.00;;;2.83;;
59167;SDS011;70412;55.048;73.268;2024-01-15T01:45:01;11.30;;;3.28;;
59167;SDS011;70412;55.048;73.268;2024-01-15T01:48:05;8.20;;;3.47;;
59167;SDS011;70412;55.048;73.268;2024-01-15T01:51:08;8.88;;;2.38;;
59167;SDS011;70412;55.048;73.268;2024-01-15T01:54:11;7.65;;;2.30;;
59167;SDS011;70412;55.048;73.268;2024-01-15T01:57:15;8.82;;;3.15;;
59167;SDS011;70412;55.048;73.268;2024-01-15T02:00:19;14.90;;;4.00;;
59167;SDS011;70412;55.048;73.268;2024-01-15T02:03:22;48.97;;;11.30;;
59167;SDS011;70412;55.048;73.268;2024-01-15T02:06:24;30.67;;;7.05;;
59167;SDS011;70412;55.048;73.268;2024-01-15T02:09:27;27.23;;;9.25;;
59167;SDS011;70412;55.048;73.268;2024-01-15T02:12:29;16.65;;;3.70;;
59167;SDS011;70412;55.048;73.268;2024-01-15T02:15:32;37.15;;;10.10;;
59167;SDS011;70412;55.048;73.268;2024-01-15T02:18:41;17.00;;;4.03;;
59167;SDS011;70412;55.048;73.268;2024-01-15T02:21:44;13.60;;;3.13;;
59167;SDS011;70412;55.048;73.268;2024-01-15T02:24:47;15.95;;;4.75;;
59167;SDS011;70412;55.048;73.268;2024-01-15T02:27:49;13.02;;;4.18;;
59167;SDS011;70412;55.048;73.268;2024-01-15T02:30:52;9.02;;;2.05;;
59167;SDS011;70412;55.048;73.268;2024-01-15T02:33:54;14.38;;;4.78;;
59167;SDS011;70412;55.048;73.268;2024-01-15T02:36:57;16.50;;;3.38;;
59167;SDS011;70412;55.048;73.268;2024-01-15T02:40:19;35.88;;;7.80;;
59167;SDS011;70412;55.048;73.268;2024-01-15T02:43:21;13.27;;;3.80;;
59167;SDS011;70412;55.048;73.268;2024-01-15T02:46:28;19.20;;;6.20;;
59167;SDS011;70412;55.048;73.268;2024-01-15T02:49:32;9.80;;;3.38;;
59167;SDS011;70412;55.048;73.268;2024-01-15T02:52:34;6.18;;;3.08;;
59167;SDS011;70412;55.048;73.268;2024-01-15T02:55:37;14.95;;;3.88;;
59167;SDS011;70412;55.048;73.268;2024-01-15T02:58:39;9.90;;;2.67;;
59167;SDS011;70412;55.048;73.268;2024-01-15T03:01:42;8.32;;;3.60;;
59167;SDS011;70412;55.048;73.268;2024-01-15T03:04:44;9.35;;;3.22;;
59167;SDS011;70412;55.048;73.268;2024-01-15T03:07:47;14.77;;;2.80;;
59167;SDS011;70412;55.048;73.268;2024-01-15T03:10:49;11.18;;;2.83;;
59167;SDS011;70412;55.048;73.268;2024-01-15T03:13:52;12.52;;;4.00;;
59167;SDS011;70412;55.048;73.268;2024-01-15T03:16:54;9.98;;;4.13;;
59167;SDS011;70412;55.048;73.268;2024-01-15T03:19:57;22.83;;;5.63;;
59167;SDS011;70412;55.048;73.268;2024-01-15T03:23:00;12.05;;;3.40;;
59167;SDS011;70412;55.048;73.268;2024-01-15T03:26:02;21.83;;;5.50;;
59167;SDS011;70412;55.048;73.268;2024-01-15T03:29:05;10.10;;;3.15;;
59167;SDS011;70412;55.048;73.268;2024-01-15T03:32:08;9.32;;;2.42;;
59167;SDS011;70412;55.048;73.268;2024-01-15T03:35:11;14.32;;;4.28;;
59167;SDS011;70412;55.048;73.268;2024-01-15T03:38:13;13.65;;;3.40;;
59167;SDS011;70412;55.048;73.268;2024-01-15T03:41:17;12.48;;;4.65;;
59167;SDS011;70412;55.048;73.268;2024-01-15T03:44:19;9.98;;;3.90;;
59167;SDS011;70412;55.048;73.268;2024-01-15T03:47:22;22.88;;;6.28;;
59167;SDS011;70412;55.048;73.268;2024-01-15T03:50:24;11.52;;;3.88;;
59167;SDS011;70412;55.048;73.268;2024-01-15T03:53:27;4.65;;;2.03;;
59167;SDS011;70412;55.048;73.268;2024-01-15T03:56:29;9.23;;;2.22;;
59167;SDS011;70412;55.048;73.268;2024-01-15T03:59:34;7.33;;;3.23;;
59167;SDS011;70412;55.048;73.268;2024-01-15T04:02:37;16.27;;;4.53;;
59167;SDS011;70412;55.048;73.268;2024-01-15T04:05:39;7.35;;;1.85;;
59167;SDS011;70412;55.048;73.268;2024-01-15T04:08:42;10.48;;;3.05;;
59167;SDS011;70412;55.048;73.268;2024-01-15T04:11:44;7.28;;;2.13;;
59167;SDS011;70412;55.048;73.268;2024-01-15T04:14:46;14.50;;;4.13;;
59167;SDS011;70412;55.048;73.268;2024-01-15T04:17:49;7.10;;;2.53;;
59167;SDS011;70412;55.048;73.268;2024-01-15T04:20:58;12.18;;;3.45;;
59167;SDS011;70412;55.048;73.268;2024-01-15T04:24:00;25.25;;;8.38;;
59167;SDS011;70412;55.048;73.268;2024-01-15T04:27:03;19.90;;;5.63;;
59167;SDS011;70412;55.048;73.268;2024-01-15T04:30:06;12.00;;;3.63;;
59167;SDS011;70412;55.048;73.268;2024-01-15T04:33:08;11.25;;;3.10;;
59167;SDS011;70412;55.048;73.268;2024-01-15T04:36:11;11.00;;;4.43;;
59167;SDS011;70412;55.048;73.268;2024-01-15T04:39:13;11.80;;;3.92;;
59167;SDS011;70412;55.048;73.268;2024-01-15T04:42:16;23.77;;;7.38;;
59167;SDS011;70412;55.048;73.268;2024-01-15T04:45:18;5.43;;;2.78;;
59167;SDS011;70412;55.048;73.268;2024-01-15T04:48:21;12.35;;;4.47;;
59167;SDS011;70412;55.048;73.268;2024-01-15T04:51:24;13.70;;;4.93;;
59167;SDS011;70412;55.048;73.268;2024-01-15T04:54:27;6.35;;;2.17;;
59167;SDS011;70412;55.048;73.268;2024-01-15T04:57:29;14.65;;;3.83;;
59167;SDS011;70412;55.048;73.268;2024-01-15T05:00:34;14.70;;;4.03;;
59167;SDS011;70412;55.048;73.268;2024-01-15T05:03:37;20.17;;;4.18;;
59167;SDS011;70412;55.048;73.268;2024-01-15T05:06:42;12.73;;;4.65;;
59167;SDS011;70412;55.048;73.268;2024-01-15T05:09:44;9.65;;;2.35;;
59167;SDS011;70412;55.048;73.268;2024-01-15T05:12:47;19.52;;;4.70;;
59167;SDS011;70412;55.048;73.268;2024-01-15T05:15:49;11.60;;;3.03;;
59167;SDS011;70412;55.048;73.268;2024-01-15T05:18:52;7.28;;;3.38;;
59167;SDS011;70412;55.048;73.268;2024-01-15T05:21:54;11.27;;;3.60;;
59167;SDS011;70412;55.048;73.268;2024-01-15T05:24:57;11.73;;;3.40;;
59167;SDS011;70412;55.048;73.268;2024-01-15T05:28:00;10.45;;;3.00;;
59167;SDS011;70412;55.048;73.268;2024-01-15T05:31:02;9.07;;;2.53;;
59167;SDS011;70412;55.048;73.268;2024-01-15T05:34:05;17.33;;;5.95;;
59167;SDS011;70412;55.048;73.268;2024-01-15T05:37:25;20.92;;;5.97;;
59167;SDS011;70412;55.048;73.268;2024-01-15T05:40:28;10.27;;;4.05;;
59167;SDS011;70412;55.048;73.268;2024-01-15T05:43:30;19.20;;;6.32;;
59167;SDS011;70412;55.048;73.268;2024-01-15T05:46:33;33.78;;;9.07;;
59167;SDS011;70412;55.048;73.268;2024-01-15T05:49:35;19.88;;;7.25;;
59167;SDS011;70412;55.048;73.268;2024-01-15T05:52:37;40.47;;;11.45;;
59167;SDS011;70412;55.048;73.268;2024-01-15T05:55:40;49.33;;;10.85;;
59167;SDS011;70412;55.048;73.268;2024-01-15T05:58:42;36.97;;;10.90;;
59167;SDS011;70412;55.048;73.268;2024-01-15T06:01:45;27.42;;;7.68;;
59167;SDS011;70412;55.048;73.268;2024-01-15T06:04:48;22.17;;;7.97;;
59167;SDS011;70412;55.048;73.268;2024-01-15T06:07:50;26.67;;;6.60;;
59167;SDS011;70412;55.048;73.268;2024-01-15T06:10:53;9.45;;;3.50;;
59167;SDS011;70412;55.048;73.268;2024-01-15T06:13:56;29.75;;;8.70;;
59167;SDS011;70412;55.048;73.268;2024-01-15T06:16:58;14.63;;;4.50;;
59167;SDS011;70412;55.048;73.268;2024-01-15T06:20:00;19.88;;;5.38;;
59167;SDS011;70412;55.048;73.268;2024-01-15T06:23:03;10.82;;;3.53;;
59167;SDS011;70412;55.048;73.268;2024-01-15T06:26:05;9.15;;;3.72;;
59167;SDS011;70412;55.048;73.268;2024-01-15T06:29:08;31.17;;;8.52;;
59167;SDS011;70412;55.048;73.268;2024-01-15T06:32:10;23.77;;;6.50;;
59167;SDS011;70412;55.048;73.268;2024-01-15T06:35:13;15.93;;;3.97;;
59167;SDS011;70412;55.048;73.268;2024-01-15T06:38:15;11.40;;;4.32;;
59167;SDS011;70412;55.048;73.268;2024-01-15T06:41:18;17.92;;;5.40;;
59167;SDS011;70412;55.048;73.268;2024-01-15T06:44:20;17.02;;;5.55;;
59167;SDS011;70412;55.048;73.268;2024-01-15T06:47:23;12.50;;;4.93;;
59167;SDS011;70412;55.048;73.268;2024-01-15T06:50:28;24.53;;;6.90;;
59167;SDS011;70412;55.048;73.268;2024-01-15T06:53:31;6.95;;;2.35;;
59167;SDS011;70412;55.048;73.268;2024-01-15T06:56:34;4.72;;;1.88;;
59167;SDS011;70412;55.048;73.268;2024-01-15T06:59:37;16.63;;;4.68;;
59167;SDS011;70412;55.048;73.268;2024-01-15T07:02:40;25.58;;;6.47;;
59167;SDS011;70412;55.048;73.268;2024-01-15T07:05:42;13.00;;;3.85;;
59167;SDS011;70412;55.048;73.268;2024-01-15T07:08:45;39.40;;;8.57;;
59167;SDS011;70412;55.048;73.268;2024-01-15T07:11:48;24.10;;;7.53;;
59167;SDS011;70412;55.048;73.268;2024-01-15T07:14:58;23.95;;;6.85;;
59167;SDS011;70412;55.048;73.268;2024-01-15T07:18:01;15.33;;;4.13;;
59167;SDS011;70412;55.048;73.268;2024-01-15T07:21:03;18.40;;;4.85;;
59167;SDS011;70412;55.048;73.268;2024-01-15T07:24:06;14.40;;;3.63;;
59167;SDS011;70412;55.048;73.268;2024-01-15T07:27:09;14.02;;;4.68;;
59167;SDS011;70412;55.048;73.268;2024-01-15T07:30:16;13.30;;;3.80;;
59167;SDS011;70412;55.048;73.268;2024-01-15T07:33:19;11.55;;;4.47;;
59167;SDS011;70412;55.048;73.268;2024-01-15T07:36:21;12.57;;;4.90;;
59167;SDS011;70412;55.048;73.268;2024-01-15T07:39:23;13.70;;;4.75;;
59167;SDS011;70412;55.048;73.268;2024-01-15T07:42:26;12.30;;;3.35;;
59167;SDS011;70412;55.048;73.268;2024-01-15T07:45:29;20.02;;;5.68;;
59167;SDS011;70412;55.048;73.268;2024-01-15T07:48:32;25.95;;;8.57;;
59167;SDS011;70412;55.048;73.268;2024-01-15T07:51:35;21.55;;;6.38;;
59167;SDS011;70412;55.048;73.268;2024-01-15T07:54:38;44.00;;;10.35;;
59167;SDS011;70412;55.048;73.268;2024-01-15T07:57:40;20.67;;;5.53;;
59167;SDS011;70412;55.048;73.268;2024-01-15T08:00:43;25.33;;;7.40;;
59167;SDS011;70412;55.048;73.268;2024-01-15T08:03:46;32.60;;;7.28;;
59167;SDS011;70412;55.048;73.268;2024-01-15T08:06:49;18.88;;;5.82;;
59167;SDS011;70412;55.048;73.268;2024-01-15T08:09:52;9.45;;;3.38;;
59167;SDS011;70412;55.048;73.268;2024-01-15T08:12:54;11.02;;;2.95;;
59167;SDS011;70412;55.048;73.268;2024-01-15T08:15:56;17.55;;;4.65;;
59167;SDS011;70412;55.048;73.268;2024-01-15T08:19:05;14.63;;;3.88;;
59167;SDS011;70412;55.048;73.268;2024-01-15T08:22:08;15.68;;;2.58;;
59167;SDS011;70412;55.048;73.268;2024-01-15T08:25:11;7.38;;;3.28;;
59167;SDS011;70412;55.048;73.268;2024-01-15T08:28:14;11.30;;;3.22;;
59167;SDS011;70412;55.048;73.268;2024-01-15T08:31:17;18.48;;;8.00;;
59167;SDS011;70412;55.048;73.268;2024-01-15T08:34:19;7.55;;;2.38;;
59167;SDS011;70412;55.048;73.268;2024-01-15T08:37:22;19.00;;;5.28;;
59167;SDS011;70412;55.048;73.268;2024-01-15T08:40:24;27.67;;;9.80;;
59167;SDS011;70412;55.048;73.268;2024-01-15T08:43:32;19.20;;;6.10;;
59167;SDS011;70412;55.048;73.268;2024-01-15T08:46:34;18.15;;;5.75;;
59167;SDS011;70412;55.048;73.268;2024-01-15T08:49:37;10.43;;;4.13;;
59167;SDS011;70412;55.048;73.268;2024-01-15T08:52:39;15.02;;;4.90;;
59167;SDS011;70412;55.048;73.268;2024-01-15T08:55:43;8.68;;;3.13;;
59167;SDS011;70412;55.048;73.268;2024-01-15T08:58:46;15.48;;;3.35;;
59167;SDS011;70412;55.048;73.268;2024-01-15T09:01:48;8.52;;;3.10;;
59167;SDS011;70412;55.048;73.268;2024-01-15T09:04:51;9.02;;;2.83;;
59167;SDS011;70412;55.048;73.268;2024-01-15T09:07:54;48.78;;;11.73;;
59167;SDS011;70412;55.048;73.268;2024-01-15T09:10:57;61.32;;;13.90;;
59167;SDS011;70412;55.048;73.268;2024-01-15T09:14:00;31.85;;;12.00;;
59167;SDS011;70412;55.048;73.268;2024-01-15T09:17:03;10.05;;;3.50;;
59167;SDS011;70412;55.048;73.268;2024-01-15T09:20:08;19.88;;;6.57;;
59167;SDS011;70412;55.048;73.268;2024-01-15T09:23:12;36.20;;;6.45;;
59167;SDS011;70412;55.048;73.268;2024-01-15T09:26:14;23.77;;;5.80;;
59167;SDS011;70412;55.048;73.268;2024-01-15T09:29:17;22.55;;;5.32;;
59167;SDS011;70412;55.048;73.268;2024-01-15T09:32:19;19.35;;;5.20;;
59167;SDS011;70412;55.048;73.268;2024-01-15T09:35:22;23.77;;;5.82;;
59167;SDS011;70412;55.048;73.268;2024-01-15T09:38:24;71.72;;;16.33;;
59167;SDS011;70412;55.048;73.268;2024-01-15T09:41:27;41.70;;;9.97;;
59167;SDS011;70412;55.048;73.268;2024-01-15T09:44:29;60.50;;;15.85;;
59167;SDS011;70412;55.048;73.268;2024-01-15T09:47:33;27.20;;;9.50;;
59167;SDS011;70412;55.048;73.268;2024-01-15T09:50:36;57.58;;;14.55;;
59167;SDS011;70412;55.048;73.268;2024-01-15T09:53:38;35.45;;;9.30;;
59167;SDS011;70412;55.048;73.268;2024-01-15T09:56:46;43.10;;;11.10;;
59167;SDS011;70412;55.048;73.268;2024-01-15T09:59:48;47.25;;;13.07;;
59167;SDS011;70412;55.048;73.268;2024-01-15T10:02:53;17.05;;;4.63;;
59167;SDS011;70412;55.048;73.268;2024-01-15T10:05:57;22.20;;;6.15;;
59167;SDS011;70412;55.048;73.268;2024-01-15T10:09:01;44.38;;;10.90;;
59167;SDS011;70412;55.048;73.268;2024-01-15T10:12:05;34.63;;;9.63;;
59167;SDS011;70412;55.048;73.268;2024-01-15T10:15:11;27.45;;;7.55;;
59167;SDS011;70412;55.048;73.268;2024-01-15T10:18:15;18.27;;;7.70;;
59167;SDS011;70412;55.048;73.268;2024-01-15T10:21:17;20.45;;;6.85;;
59167;SDS011;70412;55.048;73.268;2024-01-15T10:24:20;28.63;;;7.03;;
59167;SDS011;70412;55.048;73.268;2024-01-15T10:27:23;21.75;;;7.18;;
59167;SDS011;70412;55.048;73.268;2024-01-15T10:30:25;13.82;;;5.15;;
59167;SDS011;70412;55.048;73.268;2024-01-15T10:33:28;34.33;;;9.80;;
59167;SDS011;70412;55.048;73.268;2024-01-15T10:36:30;26.13;;;9.98;;
59167;SDS011;70412;55.048;73.268;2024-01-15T10:39:37;29.00;;;8.85;;
59167;SDS011;70412;55.048;73.268;2024-01-15T10:42:48;18.73;;;5.65;;
59167;SDS011;70412;55.048;73.268;2024-01-15T10:45:51;20.75;;;6.63;;
59167;SDS011;70412;55.048;73.268;2024-01-15T10:48:53;21.85;;;6.13;;
59167;SDS011;70412;55.048;73.268;2024-01-15T10:51:56;19.36;;;6.72;;
59167;SDS011;70412;55.048;73.268;2024-01-15T10:54:59;22.48;;;5.78;;
59167;SDS011;70412;55.048;73.268;2024-01-15T10:58:03;21.77;;;5.60;;
59167;SDS011;70412;55.048;73.268;2024-01-15T11:01:06;13.90;;;5.00;;
59167;SDS011;70412;55.048;73.268;2024-01-15T11:04:09;17.83;;;3.05;;
59167;SDS011;70412;55.048;73.268;2024-01-15T11:07:11;28.40;;;7.30;;
59167;SDS011;70412;55.048;73.268;2024-01-15T11:13:53;16.45;;;5.93;;
59167;SDS011;70412;55.048;73.268;2024-01-15T11:16:56;20.75;;;7.28;;
59167;SDS011;70412;55.048;73.268;2024-01-15T11:20:01;20.08;;;7.43;;
59167;SDS011;70412;55.048;73.268;2024-01-15T11:23:08;31.50;;;11.98;;
59167;SDS011;70412;55.048;73.268;2024-01-15T11:29:48;52.63;;;17.80;;
59167;SDS011;70412;55.048;73.268;2024-01-15T11:33:06;128.13;;;30.93;;
59167;SDS011;70412;55.048;73.268;2024-01-15T11:36:09;118.28;;;33.80;;
59167;SDS011;70412;55.048;73.268;2024-01-15T11:42:33;38.90;;;12.03;;
59167;SDS011;70412;55.048;73.268;2024-01-15T11:45:39;13.00;;;5.68;;
59167;SDS011;70412;55.048;73.268;2024-01-15T11:48:43;27.25;;;10.43;;
59167;SDS011;70412;55.048;73.268;2024-01-15T11:51:49;14.35;;;5.45;;
59167;SDS011;70412;55.048;73.268;2024-01-15T11:58:09;17.02;;;7.55;;
59167;SDS011;70412;55.048;73.268;2024-01-15T12:01:12;21.10;;;6.93;;
59167;SDS011;70412;55.048;73.268;2024-01-15T12:04:15;18.13;;;7.68;;
59167;SDS011;70412;55.048;73.268;2024-01-15T12:07:19;33.25;;;13.07;;
59167;SDS011;70412;55.048;73.268;2024-01-15T12:10:41;172.02;;;54.60;;
59167;SDS011;70412;55.048;73.268;2024-01-15T12:13:44;68.88;;;23.13;;
59167;SDS011;70412;55.048;73.268;2024-01-15T12:17:01;45.25;;;11.13;;
59167;SDS011;70412;55.048;73.268;2024-01-15T12:20:06;47.45;;;13.75;;
59167;SDS011;70412;55.048;73.268;2024-01-15T12:23:29;83.00;;;23.40;;
59167;SDS011;70412;55.048;73.268;2024-01-15T12:26:49;80.50;;;19.45;;
59167;SDS011;70412;55.048;73.268;2024-01-15T12:29:55;78.38;;;21.90;;
59167;SDS011;70412;55.048;73.268;2024-01-15T12:32:57;47.53;;;13.45;;
59167;SDS011;70412;55.048;73.268;2024-01-15T12:36:00;63.47;;;22.40;;
59167;SDS011;70412;55.048;73.268;2024-01-15T12:39:02;268.45;;;57.70;;
59167;SDS011;70412;55.048;73.268;2024-01-15T12:42:05;227.50;;;51.70;;
59167;SDS011;70412;55.048;73.268;2024-01-15T12:45:12;74.60;;;24.33;;
59167;SDS011;70412;55.048;73.268;2024-01-15T12:48:15;40.28;;;14.77;;
59167;SDS011;70412;55.048;73.268;2024-01-15T12:51:19;54.58;;;20.10;;
59167;SDS011;70412;55.048;73.268;2024-01-15T12:54:27;52.58;;;14.05;;
59167;SDS011;70412;55.048;73.268;2024-01-15T12:57:29;62.78;;;19.88;;
59167;SDS011;70412;55.048;73.268;2024-01-15T13:00:33;104.82;;;33.88;;
59167;SDS011;70412;55.048;73.268;2024-01-15T13:03:35;28.65;;;8.68;;
59167;SDS011;70412;55.048;73.268;2024-01-15T13:06:38;30.60;;;10.52;;
59167;SDS011;70412;55.048;73.268;2024-01-15T13:09:41;60.90;;;25.02;;
59167;SDS011;70412;55.048;73.268;2024-01-15T13:13:09;70.54;;;24.52;;
59167;SDS011;70412;55.048;73.268;2024-01-15T13:16:20;80.38;;;26.02;;
59167;SDS011;70412;55.048;73.268;2024-01-15T13:19:22;136.70;;;55.10;;
59167;SDS011;70412;55.048;73.268;2024-01-15T13:22:25;43.38;;;16.13;;
59167;SDS011;70412;55.048;73.268;2024-01-15T13:25:32;45.38;;;14.80;;
59167;SDS011;70412;55.048;73.268;2024-01-15T13:28:37;42.95;;;13.05;;
59167;SDS011;70412;55.048;73.268;2024-01-15T13:32:00;79.60;;;18.88;;
59167;SDS011;70412;55.048;73.268;2024-01-15T13:35:02;76.85;;;22.40;;
59167;SDS011;70412;55.048;73.268;2024-01-15T13:38:08;112.40;;;37.63;;
59167;SDS011;70412;55.048;73.268;2024-01-15T13:41:26;96.80;;;30.60;;
59167;SDS011;70412;55.048;73.268;2024-01-15T13:44:29;80.28;;;22.60;;
59167;SDS011;70412;55.048;73.268;2024-01-15T13:47:32;52.63;;;15.68;;
59167;SDS011;70412;55.048;73.268;2024-01-15T13:50:34;38.15;;;13.73;;
59167;SDS011;70412;55.048;73.268;2024-01-15T13:53:42;16.73;;;6.40;;
59167;SDS011;70412;55.048;73.268;2024-01-15T13:56:44;30.02;;;11.43;;
59167;SDS011;70412;55.048;73.268;2024-01-15T13:59:48;29.30;;;9.80;;
59167;SDS011;70412;55.048;73.268;2024-01-15T14:02:51;31.63;;;5.78;;
59167;SDS011;70412;55.048;73.268;2024-01-15T14:06:07;16.40;;;5.55;;
59167;SDS011;70412;55.048;73.268;2024-01-15T14:09:10;30.20;;;12.45;;
59167;SDS011;70412;55.048;73.268;2024-01-15T14:12:18;38.17;;;10.20;;
59167;SDS011;70412;55.048;73.268;2024-01-15T14:15:26;43.38;;;13.00;;
59167;SDS011;70412;55.048;73.268;2024-01-15T14:18:29;29.88;;;10.90;;
59167;SDS011;70412;55.048;73.268;2024-01-15T14:21:31;221.93;;;45.38;;
59167;SDS011;70412;55.048;73.268;2024-01-15T14:24:34;55.92;;;18.13;;
59167;SDS011;70412;55.048;73.268;2024-01-15T14:27:36;42.85;;;12.57;;
59167;SDS011;70412;55.048;73.268;2024-01-15T14:30:39;58.83;;;17.33;;
59167;SDS011;70412;55.048;73.268;2024-01-15T14:33:41;65.22;;;19.02;;
59167;SDS011;70412;55.048;73.268;2024-01-15T14:36:44;527.88;;;132.07;;
59167;SDS011;70412;55.048;73.268;2024-01-15T14:39:49;368.35;;;75.75;;
59167;SDS011;70412;55.048;73.268;2024-01-15T14:42:52;726.47;;;237.27;;
59167;SDS011;70412;55.048;73.268;2024-01-15T14:45:58;411.40;;;87.43;;
59167;SDS011;70412;55.048;73.268;2024-01-15T14:49:01;207.85;;;42.20;;
59167;SDS011;70412;55.048;73.268;2024-01-15T14:52:04;90.63;;;22.40;;
59167;SDS011;70412;55.048;73.268;2024-01-15T14:55:06;90.25;;;24.60;;
59167;SDS011;70412;55.048;73.268;2024-01-15T14:58:10;27.02;;;7.57;;
59167;SDS011;70412;55.048;73.268;2024-01-15T15:01:13;60.90;;;16.20;;
59167;SDS011;70412;55.048;73.268;2024-01-15T15:04:16;92.72;;;21.92;;
59167;SDS011;70412;55.048;73.268;2024-01-15T15:07:18;29.35;;;10.10;;
59167;SDS011;70412;55.048;73.268;2024-01-15T15:10:21;51.65;;;11.88;;
59167;SDS011;70412;55.048;73.268;2024-01-15T15:13:23;111.07;;;23.00;;
59167;SDS011;70412;55.048;73.268;2024-01-15T15:16:27;168.60;;;59.15;;
59167;SDS011;70412;55.048;73.268;2024-01-15T15:19:29;332.90;;;69.97;;
59167;SDS011;70412;55.048;73.268;2024-01-15T15:22:32;130.02;;;33.65;;
59167;SDS011;70412;55.048;73.268;2024-01-15T15:25:35;256.70;;;52.45;;
59167;SDS011;70412;55.048;73.268;2024-01-15T15:28:37;116.45;;;20.90;;
59167;SDS011;70412;55.048;73.268;2024-01-15T15:31:40;77.38;;;12.73;;
59167;SDS011;70412;55.048;73.268;2024-01-15T15:34:42;55.78;;;15.15;;
59167;SDS011;70412;55.048;73.268;2024-01-15T15:37:45;42.30;;;8.55;;
59167;SDS011;70412;55.048;73.268;2024-01-15T15:40:48;33.35;;;10.07;;
59167;SDS011;70412;55.048;73.268;2024-01-15T15:43:50;59.63;;;17.02;;
59167;SDS011;70412;55.048;73.268;2024-01-15T15:46:53;28.90;;;8.52;;
59167;SDS011;70412;55.048;73.268;2024-01-15T15:49:55;19.52;;;6.18;;
59167;SDS011;70412;55.048;73.268;2024-01-15T15:52:58;13.98;;;5.75;;
59167;SDS011;70412;55.048;73.268;2024-01-15T15:56:03;17.15;;;4.90;;
59167;SDS011;70412;55.048;73.268;2024-01-15T15:59:06;16.73;;;4.57;;
59167;SDS011;70412;55.048;73.268;2024-01-15T16:02:10;12.70;;;4.05;;
59167;SDS011;70412;55.048;73.268;2024-01-15T16:05:12;13.70;;;4.07;;
59167;SDS011;70412;55.048;73.268;2024-01-15T16:08:15;102.72;;;20.80;;
59167;SDS011;70412;55.048;73.268;2024-01-15T16:11:18;231.82;;;45.60;;
59167;SDS011;70412;55.048;73.268;2024-01-15T16:14:23;110.25;;;24.33;;
59167;SDS011;70412;55.048;73.268;2024-01-15T16:17:26;148.38;;;26.98;;
59167;SDS011;70412;55.048;73.268;2024-01-15T16:20:29;154.15;;;34.47;;
59167;SDS011;70412;55.048;73.268;2024-01-15T16:23:32;170.30;;;38.00;;
59167;SDS011;70412;55.048;73.268;2024-01-15T16:26:34;135.35;;;26.60;;
59167;SDS011;70412;55.048;73.268;2024-01-15T16:29:37;107.95;;;24.63;;
59167;SDS011;70412;55.048;73.268;2024-01-15T16:32:41;403.13;;;85.90;;
59167;SDS011;70412;55.048;73.268;2024-01-15T16:35:44;317.70;;;66.13;;
59167;SDS011;70412;55.048;73.268;2024-01-15T16:38:46;132.02;;;30.80;;
59167;SDS011;70412;55.048;73.268;2024-01-15T16:41:49;160.38;;;32.55;;
59167;SDS011;70412;55.048;73.268;2024-01-15T16:44:51;130.70;;;29.98;;
59167;SDS011;70412;55.048;73.268;2024-01-15T16:47:54;57.73;;;13.27;;
59167;SDS011;70412;55.048;73.268;2024-01-15T16:50:56;137.52;;;31.20;;
59167;SDS011;70412;55.048;73.268;2024-01-15T16:53:59;246.95;;;43.97;;
59167;SDS011;70412;55.048;73.268;2024-01-15T16:57:01;70.95;;;19.17;;
59167;SDS011;70412;55.048;73.268;2024-01-15T17:00:04;226.18;;;47.22;;
59167;SDS011;70412;55.048;73.268;2024-01-15T17:03:10;41.22;;;10.02;;
59167;SDS011;70412;55.048;73.268;2024-01-15T17:06:12;323.40;;;73.15;;
59167;SDS011;70412;55.048;73.268;2024-01-15T17:09:14;168.13;;;38.60;;
59167;SDS011;70412;55.048;73.268;2024-01-15T17:12:17;137.70;;;29.33;;
59167;SDS011;70412;55.048;73.268;2024-01-15T17:15:20;220.45;;;42.85;;
59167;SDS011;70412;55.048;73.268;2024-01-15T17:18:23;177.77;;;39.33;;
59167;SDS011;70412;55.048;73.268;2024-01-15T17:21:25;347.73;;;74.18;;
59167;SDS011;70412;55.048;73.268;2024-01-15T17:24:27;166.80;;;33.45;;
59167;SDS011;70412;55.048;73.268;2024-01-15T17:27:30;156.57;;;29.90;;
59167;SDS011;70412;55.048;73.268;2024-01-15T17:30:32;50.45;;;8.15;;
59167;SDS011;70412;55.048;73.268;2024-01-15T17:33:35;194.68;;;41.65;;
59167;SDS011;70412;55.048;73.268;2024-01-15T17:36:40;255.10;;;48.75;;
59167;SDS011;70412;55.048;73.268;2024-01-15T17:39:43;136.65;;;27.42;;
59167;SDS011;70412;55.048;73.268;2024-01-15T17:42:45;222.43;;;47.83;;
59167;SDS011;70412;55.048;73.268;2024-01-15T17:45:48;108.63;;;26.63;;
59167;SDS011;70412;55.048;73.268;2024-01-15T17:48:51;57.55;;;13.00;;
59167;SDS011;70412;55.048;73.268;2024-01-15T17:51:53;129.20;;;29.90;;
59167;SDS011;70412;55.048;73.268;2024-01-15T17:54:56;24.27;;;7.60;;
59167;SDS011;70412;55.048;73.268;2024-01-15T17:57:58;56.17;;;17.73;;
59167;SDS011;70412;55.048;73.268;2024-01-15T18:01:00;111.93;;;26.42;;